Terminal Aerodrome Forecast
Issued by NWS

Home | Current Version | Previous Version | Text Only | Print | Product List | Glossary On
Versions: 1 2 3 4 5 6 7 8 9 10 11 12 13 14 15 16 17 18 19 20
603
FTPA31 PHFO 301128
TAFHNY
TAF
PHNY 301128Z 3012/0112 05010KT P6SM SCT025 BKN250
     FM301900 04010KT P6SM SCT030
      TEMPO 3019/3023 VRB06KT BKN025
     FM302300 04013G20KT P6SM SCT025
     FM010700 04010KT P6SM SCT025=

USA.gov is the U.S. government's official web portal to all federal, state and local government web resources and services.